sensor_id;sensor_type;location;lat;lon;timestamp;pressure;altitude;pressure_sealevel;temperature;humidity
72336;BME280;65062;48.446;8.834;2023-04-02T00:04:22;96770.22;;;5.97;86.30
72336;BME280;65062;48.446;8.834;2023-04-02T00:07:25;96775.81;;;6.08;85.01
72336;BME280;65062;48.446;8.834;2023-04-02T00:10:35;96769.38;;;6.19;84.89
72336;BME280;65062;48.446;8.834;2023-04-02T00:13:43;96761.84;;;6.24;84.51
72336;BME280;65062;48.446;8.834;2023-04-02T00:16:44;96770.34;;;6.18;84.38
72336;BME280;65062;48.446;8.834;2023-04-02T00:19:59;96768.38;;;6.05;84.54
72336;BME280;65062;48.446;8.834;2023-04-02T00:23:02;96771.66;;;5.99;85.63
72336;BME280;65062;48.446;8.834;2023-04-02T00:26:05;96786.25;;;6.00;86.03
72336;BME280;65062;48.446;8.834;2023-04-02T00:29:09;96780.78;;;5.95;85.95
72336;BME280;65062;48.446;8.834;2023-04-02T00:32:16;96780.00;;;5.87;86.24
72336;BME280;65062;48.446;8.834;2023-04-02T00:35:23;96769.88;;;5.69;86.58
72336;BME280;65062;48.446;8.834;2023-04-02T00:38:26;96777.56;;;5.63;86.53
72336;BME280;65062;48.446;8.834;2023-04-02T00:41:30;96772.56;;;5.31;86.43
72336;BME280;65062;48.446;8.834;2023-04-02T00:44:35;96770.84;;;5.15;88.03
72336;BME280;65062;48.446;8.834;2023-04-02T00:47:37;96776.88;;;5.08;88.12
72336;BME280;65062;48.446;8.834;2023-04-02T00:50:40;96768.66;;;4.96;89.46
72336;BME280;65062;48.446;8.834;2023-04-02T00:53:44;96775.16;;;4.92;89.65
72336;BME280;65062;48.446;8.834;2023-04-02T00:56:48;96778.28;;;4.80;90.33
72336;BME280;65062;48.446;8.834;2023-04-02T01:06:16;96778.81;;;4.67;90.62
72336;BME280;65062;48.446;8.834;2023-04-02T01:12:42;96790.00;;;4.60;90.90
72336;BME280;65062;48.446;8.834;2023-04-02T01:16:24;96785.16;;;4.65;91.22
72336;BME280;65062;48.446;8.834;2023-04-02T01:20:06;96796.47;;;4.64;90.32
72336;BME280;65062;48.446;8.834;2023-04-02T01:27:15;96805.28;;;4.22;90.91
72336;BME280;65062;48.446;8.834;2023-04-02T01:30:18;96815.13;;;4.51;91.92
72336;BME280;65062;48.446;8.834;2023-04-02T01:33:28;96803.13;;;4.58;90.12
72336;BME280;65062;48.446;8.834;2023-04-02T01:36:46;96808.31;;;4.58;90.67
72336;BME280;65062;48.446;8.834;2023-04-02T01:40:18;96807.03;;;4.46;91.04
72336;BME280;65062;48.446;8.834;2023-04-02T01:43:28;96810.25;;;4.40;91.03
72336;BME280;65062;48.446;8.834;2023-04-02T01:46:34;96814.31;;;4.34;92.41
72336;BME280;65062;48.446;8.834;2023-04-02T01:49:35;96810.44;;;4.47;92.59
72336;BME280;65062;48.446;8.834;2023-04-02T01:52:40;96815.75;;;4.53;93.46
72336;BME280;65062;48.446;8.834;2023-04-02T01:55:46;96825.78;;;4.64;93.00
72336;BME280;65062;48.446;8.834;2023-04-02T01:58:47;96812.97;;;4.71;91.87
72336;BME280;65062;48.446;8.834;2023-04-02T02:02:10;96824.09;;;4.87;92.47
72336;BME280;65062;48.446;8.834;2023-04-02T02:05:13;96822.19;;;4.81;92.24
72336;BME280;65062;48.446;8.834;2023-04-02T02:11:28;96817.59;;;4.99;92.04
72336;BME280;65062;48.446;8.834;2023-04-02T02:14:30;96829.63;;;4.92;91.97
72336;BME280;65062;48.446;8.834;2023-04-02T02:17:30;96832.34;;;4.99;91.50
72336;BME280;65062;48.446;8.834;2023-04-02T02:20:33;96828.63;;;4.93;92.36
72336;BME280;65062;48.446;8.834;2023-04-02T02:23:35;96829.44;;;4.94;91.91
72336;BME280;65062;48.446;8.834;2023-04-02T02:26:36;96833.16;;;4.91;92.36
72336;BME280;65062;48.446;8.834;2023-04-02T02:29:39;96838.81;;;5.03;91.73
72336;BME280;65062;48.446;8.834;2023-04-02T02:32:49;96846.59;;;5.03;91.96
72336;BME280;65062;48.446;8.834;2023-04-02T02:39:43;96843.31;;;5.17;91.50
72336;BME280;65062;48.446;8.834;2023-04-02T02:42:51;96843.81;;;5.12;91.81
72336;BME280;65062;48.446;8.834;2023-04-02T02:45:54;96847.72;;;5.08;90.99
72336;BME280;65062;48.446;8.834;2023-04-02T02:48:56;96845.41;;;5.21;91.86
72336;BME280;65062;48.446;8.834;2023-04-02T02:55:11;96855.97;;;5.12;91.44
72336;BME280;65062;48.446;8.834;2023-04-02T02:58:22;96851.91;;;5.09;92.13
72336;BME280;65062;48.446;8.834;2023-04-02T03:01:28;96861.63;;;5.15;91.75
72336;BME280;65062;48.446;8.834;2023-04-02T03:04:28;96856.75;;;5.20;92.54
72336;BME280;65062;48.446;8.834;2023-04-02T03:07:30;96862.22;;;5.33;91.68
72336;BME280;65062;48.446;8.834;2023-04-02T03:10:43;96856.09;;;5.26;90.66
72336;BME280;65062;48.446;8.834;2023-04-02T03:13:48;96865.31;;;5.21;91.21
72336;BME280;65062;48.446;8.834;2023-04-02T03:16:52;96854.94;;;5.29;91.79
72336;BME280;65062;48.446;8.834;2023-04-02T03:20:01;96860.63;;;5.24;91.50
72336;BME280;65062;48.446;8.834;2023-04-02T03:23:41;96872.59;;;5.25;91.50
72336;BME280;65062;48.446;8.834;2023-04-02T03:26:51;96872.59;;;5.33;92.04
72336;BME280;65062;48.446;8.834;2023-04-02T03:33:36;96883.56;;;5.43;90.88
72336;BME280;65062;48.446;8.834;2023-04-02T03:36:56;96880.66;;;5.38;91.24
72336;BME280;65062;48.446;8.834;2023-04-02T03:40:07;96880.50;;;5.40;91.30
72336;BME280;65062;48.446;8.834;2023-04-02T03:43:19;96889.75;;;5.42;90.84
72336;BME280;65062;48.446;8.834;2023-04-02T03:46:25;96887.50;;;5.39;91.11
72336;BME280;65062;48.446;8.834;2023-04-02T03:49:42;96896.94;;;5.24;91.36
72336;BME280;65062;48.446;8.834;2023-04-02T03:52:46;96891.25;;;5.21;92.03
72336;BME280;65062;48.446;8.834;2023-04-02T03:55:47;96893.06;;;5.20;91.63
72336;BME280;65062;48.446;8.834;2023-04-02T03:58:55;96898.72;;;5.24;91.90
72336;BME280;65062;48.446;8.834;2023-04-02T04:05:48;96907.13;;;5.34;92.73
72336;BME280;65062;48.446;8.834;2023-04-02T04:08:58;96907.75;;;5.36;92.59
72336;BME280;65062;48.446;8.834;2023-04-02T04:12:32;96917.63;;;5.48;92.43
72336;BME280;65062;48.446;8.834;2023-04-02T04:16:20;96917.91;;;5.53;91.92
72336;BME280;65062;48.446;8.834;2023-04-02T04:19:09;96924.41;;;5.57;91.62
72336;BME280;65062;48.446;8.834;2023-04-02T04:22:22;96929.06;;;5.62;91.17
72336;BME280;65062;48.446;8.834;2023-04-02T04:25:41;96930.38;;;5.66;91.43
72336;BME280;65062;48.446;8.834;2023-04-02T04:28:49;96937.19;;;5.59;90.88
72336;BME280;65062;48.446;8.834;2023-04-02T04:35:24;96939.63;;;5.60;91.26
72336;BME280;65062;48.446;8.834;2023-04-02T04:38:34;96939.94;;;5.65;90.97
72336;BME280;65062;48.446;8.834;2023-04-02T04:41:38;96946.75;;;5.66;90.89
72336;BME280;65062;48.446;8.834;2023-04-02T04:44:45;96953.22;;;5.70;90.62
72336;BME280;65062;48.446;8.834;2023-04-02T04:48:19;96955.69;;;5.64;91.07
72336;BME280;65062;48.446;8.834;2023-04-02T04:51:32;96961.19;;;5.69;91.08
72336;BME280;65062;48.446;8.834;2023-04-02T04:54:38;96958.44;;;5.70;90.59
72336;BME280;65062;48.446;8.834;2023-04-02T04:57:40;96959.69;;;5.74;90.44
72336;BME280;65062;48.446;8.834;2023-04-02T05:04:12;96971.25;;;5.72;90.40
72336;BME280;65062;48.446;8.834;2023-04-02T05:07:26;96970.72;;;5.84;90.20
72336;BME280;65062;48.446;8.834;2023-04-02T05:10:50;96968.13;;;5.76;90.89
72336;BME280;65062;48.446;8.834;2023-04-02T05:13:58;96976.09;;;5.83;90.22
72336;BME280;65062;48.446;8.834;2023-04-02T05:17:22;96985.78;;;5.81;89.72
72336;BME280;65062;48.446;8.834;2023-04-02T05:20:29;96981.44;;;5.73;89.88
72336;BME280;65062;48.446;8.834;2023-04-02T05:23:55;96986.31;;;5.68;90.65
72336;BME280;65062;48.446;8.834;2023-04-02T05:27:02;96986.63;;;5.81;90.34
72336;BME280;65062;48.446;8.834;2023-04-02T05:30:51;96994.41;;;5.89;89.93
72336;BME280;65062;48.446;8.834;2023-04-02T05:33:53;96995.34;;;5.96;89.69
72336;BME280;65062;48.446;8.834;2023-04-02T05:36:54;96992.25;;;5.93;89.68
72336;BME280;65062;48.446;8.834;2023-04-02T05:39:57;97000.19;;;5.99;89.71
72336;BME280;65062;48.446;8.834;2023-04-02T05:43:00;97006.88;;;5.94;89.64
72336;BME280;65062;48.446;8.834;2023-04-02T05:46:12;97007.84;;;5.93;90.11
72336;BME280;65062;48.446;8.834;2023-04-02T05:49:22;97005.56;;;5.98;90.09
72336;BME280;65062;48.446;8.834;2023-04-02T05:52:30;97014.59;;;6.10;89.48
72336;BME280;65062;48.446;8.834;2023-04-02T05:55:56;97015.53;;;6.17;89.04
72336;BME280;65062;48.446;8.834;2023-04-02T05:59:10;97021.66;;;6.32;89.05
72336;BME280;65062;48.446;8.834;2023-04-02T06:02:16;97027.00;;;6.30;88.30
72336;BME280;65062;48.446;8.834;2023-04-02T06:05:25;97027.25;;;6.43;88.95
72336;BME280;65062;48.446;8.834;2023-04-02T06:08:36;97034.22;;;6.51;88.76
72336;BME280;65062;48.446;8.834;2023-04-02T06:11:41;97033.41;;;6.51;88.24
72336;BME280;65062;48.446;8.834;2023-04-02T06:14:44;97031.88;;;6.56;88.75
72336;BME280;65062;48.446;8.834;2023-04-02T06:20:52;97045.56;;;6.81;88.64
72336;BME280;65062;48.446;8.834;2023-04-02T06:24:01;97041.38;;;6.94;87.41
72336;BME280;65062;48.446;8.834;2023-04-02T06:27:04;97049.44;;;7.07;87.36
72336;BME280;65062;48.446;8.834;2023-04-02T06:30:15;97048.16;;;7.26;86.63
72336;BME280;65062;48.446;8.834;2023-04-02T06:33:16;97053.13;;;7.35;85.78
72336;BME280;65062;48.446;8.834;2023-04-02T06:36:18;97056.38;;;7.52;86.20
72336;BME280;65062;48.446;8.834;2023-04-02T06:39:24;97064.19;;;7.66;84.70
72336;BME280;65062;48.446;8.834;2023-04-02T06:42:27;97068.69;;;7.72;85.69
72336;BME280;65062;48.446;8.834;2023-04-02T06:45:37;97064.78;;;7.91;83.82
72336;BME280;65062;48.446;8.834;2023-04-02T06:48:41;97081.66;;;7.95;84.15
72336;BME280;65062;48.446;8.834;2023-04-02T06:51:44;97083.81;;;8.06;83.16
72336;BME280;65062;48.446;8.834;2023-04-02T06:54:46;97093.28;;;8.21;82.86
72336;BME280;65062;48.446;8.834;2023-04-02T06:57:47;97089.97;;;8.27;82.15
72336;BME280;65062;48.446;8.834;2023-04-02T07:00:48;97096.63;;;8.30;82.12
72336;BME280;65062;48.446;8.834;2023-04-02T07:03:50;97104.97;;;8.40;80.17
72336;BME280;65062;48.446;8.834;2023-04-02T07:06:51;97107.31;;;8.49;80.77
72336;BME280;65062;48.446;8.834;2023-04-02T07:09:52;97110.53;;;8.51;80.41
72336;BME280;65062;48.446;8.834;2023-04-02T07:12:52;97121.16;;;8.50;80.41
72336;BME280;65062;48.446;8.834;2023-04-02T07:15:53;97122.13;;;8.64;80.41
72336;BME280;65062;48.446;8.834;2023-04-02T07:18:55;97131.66;;;8.71;79.75
72336;BME280;65062;48.446;8.834;2023-04-02T07:21:57;97125.97;;;8.82;79.95
72336;BME280;65062;48.446;8.834;2023-04-02T07:24:57;97131.63;;;8.86;77.01
72336;BME280;65062;48.446;8.834;2023-04-02T07:27:58;97134.00;;;9.02;78.29
72336;BME280;65062;48.446;8.834;2023-04-02T07:30:59;97134.91;;;9.09;76.17
72336;BME280;65062;48.446;8.834;2023-04-02T07:33:59;97137.56;;;9.15;75.84
72336;BME280;65062;48.446;8.834;2023-04-02T07:37:00;97139.41;;;9.36;75.49
72336;BME280;65062;48.446;8.834;2023-04-02T07:40:01;97140.81;;;9.38;74.57
72336;BME280;65062;48.446;8.834;2023-04-02T07:43:03;97145.28;;;9.44;73.90
72336;BME280;65062;48.446;8.834;2023-04-02T07:46:04;97146.50;;;9.42;74.13
72336;BME280;65062;48.446;8.834;2023-04-02T07:49:05;97147.72;;;9.46;73.45
72336;BME280;65062;48.446;8.834;2023-04-02T07:52:05;97151.84;;;9.55;73.59
72336;BME280;65062;48.446;8.834;2023-04-02T07:55:06;97152.00;;;9.74;73.14
72336;BME280;65062;48.446;8.834;2023-04-02T07:58:07;97167.53;;;9.82;73.06
72336;BME280;65062;48.446;8.834;2023-04-02T08:01:18;97168.81;;;9.86;71.89
72336;BME280;65062;48.446;8.834;2023-04-02T08:04:21;97176.66;;;9.86;71.88
72336;BME280;65062;48.446;8.834;2023-04-02T08:07:21;97173.75;;;9.75;71.41
72336;BME280;65062;48.446;8.834;2023-04-02T08:10:23;97177.94;;;9.97;73.32
72336;BME280;65062;48.446;8.834;2023-04-02T08:13:23;97178.69;;;10.12;70.89
72336;BME280;65062;48.446;8.834;2023-04-02T08:16:23;97181.34;;;10.18;71.53
72336;BME280;65062;48.446;8.834;2023-04-02T08:19:24;97181.41;;;10.25;69.88
72336;BME280;65062;48.446;8.834;2023-04-02T08:22:24;97188.84;;;10.55;70.75
72336;BME280;65062;48.446;8.834;2023-04-02T08:25:26;97192.13;;;10.64;68.71
72336;BME280;65062;48.446;8.834;2023-04-02T08:28:27;97201.31;;;10.88;68.97
72336;BME280;65062;48.446;8.834;2023-04-02T08:31:27;97203.09;;;10.87;68.10
72336;BME280;65062;48.446;8.834;2023-04-02T08:34:29;97205.91;;;10.79;67.81
72336;BME280;65062;48.446;8.834;2023-04-02T08:37:29;97214.00;;;10.56;68.28
72336;BME280;65062;48.446;8.834;2023-04-02T08:40:34;97219.81;;;10.52;68.26
72336;BME280;65062;48.446;8.834;2023-04-02T08:44:05;97217.75;;;10.41;67.34
72336;BME280;65062;48.446;8.834;2023-04-02T08:47:09;97221.41;;;10.19;67.75
72336;BME280;65062;48.446;8.834;2023-04-02T08:50:32;97216.34;;;10.17;68.40
72336;BME280;65062;48.446;8.834;2023-04-02T08:53:36;97230.97;;;10.12;67.16
72336;BME280;65062;48.446;8.834;2023-04-02T09:00:11;97227.53;;;10.60;66.15
72336;BME280;65062;48.446;8.834;2023-04-02T09:03:38;97229.44;;;11.20;67.84
72336;BME280;65062;48.446;8.834;2023-04-02T09:06:41;97240.88;;;11.06;64.15
72336;BME280;65062;48.446;8.834;2023-04-02T09:09:46;97240.41;;;11.43;65.99
72336;BME280;65062;48.446;8.834;2023-04-02T09:12:51;97240.34;;;11.30;63.86
72336;BME280;65062;48.446;8.834;2023-04-02T09:16:13;97247.44;;;11.36;65.15
72336;BME280;65062;48.446;8.834;2023-04-02T09:19:33;97252.72;;;11.42;64.43
72336;BME280;65062;48.446;8.834;2023-04-02T09:22:35;97243.44;;;11.46;66.04
72336;BME280;65062;48.446;8.834;2023-04-02T09:25:43;97252.28;;;11.92;63.70
72336;BME280;65062;48.446;8.834;2023-04-02T09:28:44;97254.50;;;12.60;64.50
72336;BME280;65062;48.446;8.834;2023-04-02T09:35:19;97257.94;;;12.61;59.58
72336;BME280;65062;48.446;8.834;2023-04-02T09:38:25;97261.19;;;12.37;62.35
72336;BME280;65062;48.446;8.834;2023-04-02T09:41:32;97273.47;;;12.82;61.96
72336;BME280;65062;48.446;8.834;2023-04-02T09:44:33;97277.34;;;12.60;59.15
72336;BME280;65062;48.446;8.834;2023-04-02T09:47:34;97283.00;;;12.37;59.31
72336;BME280;65062;48.446;8.834;2023-04-02T09:50:34;97288.41;;;12.29;62.57
72336;BME280;65062;48.446;8.834;2023-04-02T09:53:39;97296.13;;;12.44;60.23
72336;BME280;65062;48.446;8.834;2023-04-02T09:56:58;97283.16;;;12.29;59.04
72336;BME280;65062;48.446;8.834;2023-04-02T10:00:09;97284.19;;;12.28;60.21
72336;BME280;65062;48.446;8.834;2023-04-02T10:06:17;97289.00;;;12.90;59.58
72336;BME280;65062;48.446;8.834;2023-04-02T10:09:28;97286.97;;;12.99;57.20
72336;BME280;65062;48.446;8.834;2023-04-02T10:12:34;97301.56;;;13.01;59.20
72336;BME280;65062;48.446;8.834;2023-04-02T10:18:56;97301.88;;;13.88;57.54
72336;BME280;65062;48.446;8.834;2023-04-02T10:21:59;97309.63;;;13.70;57.13
72336;BME280;65062;48.446;8.834;2023-04-02T10:25:01;97314.91;;;13.63;59.19
72336;BME280;65062;48.446;8.834;2023-04-02T10:28:15;97316.31;;;13.09;54.93
72336;BME280;65062;48.446;8.834;2023-04-02T10:31:23;97313.06;;;12.22;58.46
72336;BME280;65062;48.446;8.834;2023-04-02T10:41:07;97323.50;;;12.02;62.65
72336;BME280;65062;48.446;8.834;2023-04-02T10:47:21;97339.72;;;12.45;60.52
72336;BME280;65062;48.446;8.834;2023-04-02T10:50:40;97340.34;;;12.47;59.50
72336;BME280;65062;48.446;8.834;2023-04-02T10:53:56;97333.03;;;12.29;60.09
72336;BME280;65062;48.446;8.834;2023-04-02T10:57:25;97334.47;;;12.71;57.29
72336;BME280;65062;48.446;8.834;2023-04-02T11:00:31;97331.47;;;13.13;56.95
72336;BME280;65062;48.446;8.834;2023-04-02T11:03:43;97342.44;;;13.61;55.48
72336;BME280;65062;48.446;8.834;2023-04-02T11:07:06;97346.84;;;13.73;55.81
72336;BME280;65062;48.446;8.834;2023-04-02T11:10:13;97343.31;;;13.42;55.99
72336;BME280;65062;48.446;8.834;2023-04-02T11:13:24;97342.06;;;13.57;57.74
72336;BME280;65062;48.446;8.834;2023-04-02T11:16:25;97349.41;;;13.29;56.71
72336;BME280;65062;48.446;8.834;2023-04-02T11:19:28;97347.22;;;13.07;57.70
72336;BME280;65062;48.446;8.834;2023-04-02T11:22:29;97356.91;;;12.80;59.54
72336;BME280;65062;48.446;8.834;2023-04-02T11:25:30;97355.47;;;12.84;58.79
72336;BME280;65062;48.446;8.834;2023-04-02T11:28:31;97356.91;;;12.67;59.79
72336;BME280;65062;48.446;8.834;2023-04-02T11:31:32;97365.59;;;12.61;58.30
72336;BME280;65062;48.446;8.834;2023-04-02T11:37:48;97364.16;;;12.98;59.77
72336;BME280;65062;48.446;8.834;2023-04-02T11:40:52;97375.84;;;13.54;58.50
72336;BME280;65062;48.446;8.834;2023-04-02T11:43:59;97376.63;;;13.67;56.95
72336;BME280;65062;48.446;8.834;2023-04-02T11:47:32;97374.66;;;14.00;55.90
72336;BME280;65062;48.446;8.834;2023-04-02T11:50:38;97377.94;;;13.89;55.56
72336;BME280;65062;48.446;8.834;2023-04-02T11:53:41;97383.78;;;13.91;56.41
72336;BME280;65062;48.446;8.834;2023-04-02T11:56:57;97382.88;;;14.17;56.23
72336;BME280;65062;48.446;8.834;2023-04-02T12:07:07;97389.69;;;14.37;54.03
72336;BME280;65062;48.446;8.834;2023-04-02T12:10:19;97389.69;;;14.31;54.93
72336;BME280;65062;48.446;8.834;2023-04-02T12:16:41;97389.16;;;14.53;53.69
72336;BME280;65062;48.446;8.834;2023-04-02T12:19:46;97399.03;;;14.64;54.12
72336;BME280;65062;48.446;8.834;2023-04-02T12:22:48;97397.38;;;14.32;55.91
72336;BME280;65062;48.446;8.834;2023-04-02T12:26:00;97395.41;;;14.28;53.43
72336;BME280;65062;48.446;8.834;2023-04-02T12:32:29;97402.41;;;13.96;56.53
72336;BME280;65062;48.446;8.834;2023-04-02T12:35:31;97409.78;;;13.75;56.71
72336;BME280;65062;48.446;8.834;2023-04-02T12:38:35;97409.81;;;13.55;56.41
72336;BME280;65062;48.446;8.834;2023-04-02T12:41:39;97412.78;;;13.78;52.87
72336;BME280;65062;48.446;8.834;2023-04-02T12:44:47;97418.25;;;14.65;54.64
72336;BME280;65062;48.446;8.834;2023-04-02T12:47:48;97418.59;;;15.91;51.94
72336;BME280;65062;48.446;8.834;2023-04-02T12:50:48;97412.97;;;16.35;44.23
72336;BME280;65062;48.446;8.834;2023-04-02T12:53:50;97413.69;;;17.36;42.36
72336;BME280;65062;48.446;8.834;2023-04-02T12:56:51;97415.56;;;18.21;45.44
72336;BME280;65062;48.446;8.834;2023-04-02T12:59:59;97419.59;;;18.24;43.90
72336;BME280;65062;48.446;8.834;2023-04-02T13:06:21;97417.59;;;19.32;42.29
72336;BME280;65062;48.446;8.834;2023-04-02T13:09:50;97429.31;;;18.07;44.90
72336;BME280;65062;48.446;8.834;2023-04-02T13:13:02;97425.84;;;18.06;45.86
72336;BME280;65062;48.446;8.834;2023-04-02T13:16:05;97429.25;;;17.44;47.87
72336;BME280;65062;48.446;8.834;2023-04-02T13:22:29;97439.44;;;18.10;46.16
72336;BME280;65062;48.446;8.834;2023-04-02T13:25:34;97440.06;;;17.89;48.12
72336;BME280;65062;48.446;8.834;2023-04-02T13:28:35;97437.81;;;17.17;48.12
72336;BME280;65062;48.446;8.834;2023-04-02T13:31:36;97437.00;;;16.63;49.59
72336;BME280;65062;48.446;8.834;2023-04-02T13:34:36;97445.63;;;15.87;54.09
72336;BME280;65062;48.446;8.834;2023-04-02T13:37:37;97445.38;;;15.52;54.32
72336;BME280;65062;48.446;8.834;2023-04-02T13:40:37;97447.88;;;14.92;56.61
72336;BME280;65062;48.446;8.834;2023-04-02T13:43:38;97451.16;;;14.87;55.47
72336;BME280;65062;48.446;8.834;2023-04-02T13:46:38;97455.88;;;14.79;55.52
72336;BME280;65062;48.446;8.834;2023-04-02T13:49:39;97458.22;;;14.05;56.59
72336;BME280;65062;48.446;8.834;2023-04-02T13:52:39;97455.59;;;14.05;57.96
72336;BME280;65062;48.446;8.834;2023-04-02T13:55:41;97455.44;;;13.87;56.47
72336;BME280;65062;48.446;8.834;2023-04-02T13:58:42;97449.06;;;14.20;56.37
72336;BME280;65062;48.446;8.834;2023-04-02T14:01:43;97448.38;;;14.44;57.29
72336;BME280;65062;48.446;8.834;2023-04-02T14:04:49;97447.25;;;17.01;50.06
72336;BME280;65062;48.446;8.834;2023-04-02T14:14:46;97447.53;;;17.92;46.15
72336;BME280;65062;48.446;8.834;2023-04-02T14:34:01;97466.97;;;16.03;48.85
72336;BME280;65062;48.446;8.834;2023-04-02T14:43:59;97466.94;;;16.87;47.20
72336;BME280;65062;48.446;8.834;2023-04-02T14:47:32;97472.41;;;17.04;44.88
72336;BME280;65062;48.446;8.834;2023-04-02T14:50:38;97475.09;;;17.27;45.66
72336;BME280;65062;48.446;8.834;2023-04-02T14:57:09;97470.72;;;16.32;48.40
72336;BME280;65062;48.446;8.834;2023-04-02T15:03:57;97475.94;;;16.02;47.16
72336;BME280;65062;48.446;8.834;2023-04-02T15:07:10;97478.75;;;16.73;47.87
72336;BME280;65062;48.446;8.834;2023-04-02T15:10:21;97476.88;;;19.54;43.28
72336;BME280;65062;48.446;8.834;2023-04-02T15:13:35;97490.88;;;21.38;35.86
72336;BME280;65062;48.446;8.834;2023-04-02T15:16:36;97493.19;;;20.33;37.52
72336;BME280;65062;48.446;8.834;2023-04-02T15:19:36;97502.53;;;19.48;40.31
72336;BME280;65062;48.446;8.834;2023-04-02T15:42:48;97533.56;;;12.07;64.76
72336;BME280;65062;48.446;8.834;2023-04-02T15:52:18;97543.94;;;11.60;67.98
72336;BME280;65062;48.446;8.834;2023-04-02T15:55:25;97553.13;;;11.50;68.51
72336;BME280;65062;48.446;8.834;2023-04-02T16:08:23;97575.56;;;10.60;72.83
72336;BME280;65062;48.446;8.834;2023-04-02T16:11:26;97580.25;;;10.65;74.09
72336;BME280;65062;48.446;8.834;2023-04-02T16:14:28;97587.41;;;10.41;74.96
72336;BME280;65062;48.446;8.834;2023-04-02T16:17:34;97589.50;;;10.31;74.45
72336;BME280;65062;48.446;8.834;2023-04-02T16:20:40;97601.38;;;10.19;75.92
72336;BME280;65062;48.446;8.834;2023-04-02T16:23:42;97600.69;;;10.11;76.26
72336;BME280;65062;48.446;8.834;2023-04-02T16:26:53;97599.75;;;10.04;75.95
72336;BME280;65062;48.446;8.834;2023-04-02T16:37:10;97615.97;;;9.99;75.29
72336;BME280;65062;48.446;8.834;2023-04-02T16:57:19;97646.63;;;9.68;77.80
72336;BME280;65062;48.446;8.834;2023-04-02T17:00:32;97650.28;;;9.59;78.04
72336;BME280;65062;48.446;8.834;2023-04-02T17:03:59;97652.97;;;9.51;78.22
72336;BME280;65062;48.446;8.834;2023-04-02T17:13:46;97666.78;;;9.37;79.45
72336;BME280;65062;48.446;8.834;2023-04-02T17:16:55;97670.72;;;9.33;80.34
72336;BME280;65062;48.446;8.834;2023-04-02T17:19:59;97682.88;;;9.18;80.60
72336;BME280;65062;48.446;8.834;2023-04-02T17:23:00;97689.31;;;9.08;81.78
72336;BME280;65062;48.446;8.834;2023-04-02T17:26:06;97688.22;;;8.94;82.07
72336;BME280;65062;48.446;8.834;2023-04-02T17:29:10;97707.22;;;8.80;82.03
72336;BME280;65062;48.446;8.834;2023-04-02T17:32:20;97718.38;;;8.66;82.01
72336;BME280;65062;48.446;8.834;2023-04-02T17:45:37;97742.72;;;8.34;83.01
72336;BME280;65062;48.446;8.834;2023-04-02T17:48:46;97744.38;;;8.27;83.16
72336;BME280;65062;48.446;8.834;2023-04-02T17:51:50;97746.31;;;8.25;82.05
72336;BME280;65062;48.446;8.834;2023-04-02T17:58:13;97756.06;;;8.07;82.74
72336;BME280;65062;48.446;8.834;2023-04-02T18:01:45;97759.34;;;8.01;82.60
72336;BME280;65062;48.446;8.834;2023-04-02T18:04:55;97774.81;;;7.95;83.64
72336;BME280;65062;48.446;8.834;2023-04-02T18:08:55;97780.00;;;7.87;83.70
72336;BME280;65062;48.446;8.834;2023-04-02T18:34:09;97824.31;;;7.29;85.28
72336;BME280;65062;48.446;8.834;2023-04-02T18:38:14;97834.66;;;7.21;85.35
72336;BME280;65062;48.446;8.834;2023-04-02T18:44:55;97855.13;;;7.16;84.51
72336;BME280;65062;48.446;8.834;2023-04-02T18:51:19;97869.66;;;7.19;84.71
72336;BME280;65062;48.446;8.834;2023-04-02T18:54:34;97874.03;;;7.18;83.32
72336;BME280;65062;48.446;8.834;2023-04-02T18:57:38;97880.81;;;7.11;82.35
72336;BME280;65062;48.446;8.834;2023-04-02T19:00:43;97876.28;;;7.13;82.71
72336;BME280;65062;48.446;8.834;2023-04-02T19:03:50;97892.00;;;7.04;81.58
72336;BME280;65062;48.446;8.834;2023-04-02T19:06:58;97895.88;;;7.00;81.36
72336;BME280;65062;48.446;8.834;2023-04-02T19:13:19;97915.84;;;6.91;81.56
72336;BME280;65062;48.446;8.834;2023-04-02T19:23:52;97923.66;;;6.74;82.00
72336;BME280;65062;48.446;8.834;2023-04-02T19:26:57;97933.69;;;6.69;81.58
72336;BME280;65062;48.446;8.834;2023-04-02T19:30:27;97937.56;;;6.65;82.03
72336;BME280;65062;48.446;8.834;2023-04-02T19:33:40;97940.63;;;6.60;81.05
72336;BME280;65062;48.446;8.834;2023-04-02T19:36:54;97946.31;;;6.64;81.77
72336;BME280;65062;48.446;8.834;2023-04-02T19:40:24;97959.88;;;6.50;81.62
72336;BME280;65062;48.446;8.834;2023-04-02T19:43:28;97962.22;;;6.43;80.68
72336;BME280;65062;48.446;8.834;2023-04-02T19:46:28;97964.47;;;6.38;81.61
72336;BME280;65062;48.446;8.834;2023-04-02T19:49:32;97965.06;;;6.32;81.86
72336;BME280;65062;48.446;8.834;2023-04-02T19:52:33;97973.94;;;6.29;81.85
72336;BME280;65062;48.446;8.834;2023-04-02T19:55:34;97973.78;;;6.31;82.04
72336;BME280;65062;48.446;8.834;2023-04-02T19:58:34;97979.16;;;6.29;81.52
72336;BME280;65062;48.446;8.834;2023-04-02T20:01:35;97975.91;;;6.27;81.14
72336;BME280;65062;48.446;8.834;2023-04-02T20:04:35;97986.94;;;6.29;81.27
72336;BME280;65062;48.446;8.834;2023-04-02T20:07:36;97996.59;;;6.19;81.01
72336;BME280;65062;48.446;8.834;2023-04-02T20:10:36;97998.34;;;6.01;81.32
72336;BME280;65062;48.446;8.834;2023-04-02T20:13:37;98003.97;;;5.97;81.16
72336;BME280;65062;48.446;8.834;2023-04-02T20:16:37;98019.94;;;6.02;80.85
72336;BME280;65062;48.446;8.834;2023-04-02T20:19:38;98025.06;;;5.84;80.80
72336;BME280;65062;48.446;8.834;2023-04-02T20:22:38;98028.50;;;5.85;81.57
72336;BME280;65062;48.446;8.834;2023-04-02T20:25:44;98040.94;;;5.81;81.66
72336;BME280;65062;48.446;8.834;2023-04-02T20:28:44;98037.94;;;5.76;81.15
72336;BME280;65062;48.446;8.834;2023-04-02T20:31:44;98041.25;;;5.59;80.41
72336;BME280;65062;48.446;8.834;2023-04-02T20:34:45;98051.13;;;5.46;81.72
72336;BME280;65062;48.446;8.834;2023-04-02T20:37:46;98055.38;;;5.38;80.78
72336;BME280;65062;48.446;8.834;2023-04-02T20:40:46;98054.31;;;5.31;79.88
72336;BME280;65062;48.446;8.834;2023-04-02T20:43:51;98058.00;;;5.19;80.63
72336;BME280;65062;48.446;8.834;2023-04-02T20:46:53;98064.16;;;5.08;80.89
72336;BME280;65062;48.446;8.834;2023-04-02T20:49:53;98064.16;;;5.08;82.30